Decoded Metar for LFSG (EPINAL in FRANCE) (IATA:EPL) | Meteo·Mobile Aviation Weather
aviador You're here:

LFSG Decoded Metar

EPINAL in FRANCE
Report Time2019-04-20 10:30:00
UTC Time2019-04-20 10:40:16
Flight Rules vfr VFR
Wind020° at 09 kt
W.Decomp.*RWY 08: 4.4 kt HW 7.9 kt LCW
Visibility9999 m
Phenomena:N/A
Clouds:N/A
Expected CloudBase > 4,800 ft AGL from Temp-Dew spread
CeilingNone
Temp19°C (ISA +6)
Dew Point07°C (46% RH)
AAT15.1°C
QNH1025 hPa
Density Alt1,539 ft
Elevation1,083 ft
Report Wrong Elevation
Raw Report
METAR LFSG 201030Z AUTO 02009KT CAVOK 19/07 Q1025=

Extra information for LFSG:More info

Metar Taf Metar & Taf Last 4 Metars F.Rules Stats Wind Profile Meteogram Temp Stats Airport Information Weather charts Add Link Nearby VenuesMetar ALERT Operation Metar Decoded Social comments